Time;durP1;ratioP1;P1;durP2;ratioP2;P2;SDS_P1;SDS_P2;PMS_P1;PMS_P2;Temp;Humidity;BMP_temperature;BMP_pressure;BME280_temperature;BME280_humidity;BME280_pressure;Samples;Min_cycle;Max_cycle;Signal;HPM_P1;HPM_P2
2021/11/19 00:01:11;;;;;;;;;;;;;;;;;;6247892;28;20085;-67
2021/11/19 00:04:13;;;;;;;86.57;35.50;;;;;;;;;;6266946;28;19927;-67
2021/11/19 00:07:14;;;;;;;94.22;35.97;;;;;;;;;;6256705;28;20044;-67
2021/11/19 00:10:16;;;;;;;99.63;37.42;;;;;;;;;;6245571;28;20124;-67
2021/11/19 00:13:19;;;;;;;96.90;38.70;;;;;;;;;;6257231;28;20493;-67
2021/11/19 00:16:23;;;;;;;97.40;36.78;;;;;;;;;;6239491;28;20900;-67
2021/11/19 00:19:25;;;;;;;98.70;38.17;;;;;;;;;;6255920;28;20045;-67
2021/11/19 00:22:26;;;;;;;98.55;36.17;;;;;;;;;;6246585;28;20570;-67
2021/11/19 00:25:28;;;;;;;96.40;35.42;;;;;;;;;;6257084;28;20054;-67
2021/11/19 00:28:31;;;;;;;98.00;37.03;;;;;;;;;;6259324;28;20046;-67
2021/11/19 00:31:33;;;;;;;98.60;37.23;;;;;;;;;;6245633;28;20071;-67
2021/11/19 00:34:34;;;;;;;95.40;36.10;;;;;;;;;;6267365;28;20135;-67
2021/11/19 00:37:36;;;;;;;94.38;36.65;;;;;;;;;;6247452;28;20077;-67
2021/11/19 00:40:39;;;;;;;91.60;34.70;;;;;;;;;;6249721;28;20091;-67
2021/11/19 00:43:42;;;;;;;96.50;37.72;;;;;;;;;;6257612;28;20639;-67
2021/11/19 00:46:44;;;;;;;94.40;36.90;;;;;;;;;;6239982;28;20178;-67
2021/11/19 00:49:46;;;;;;;92.55;35.38;;;;;;;;;;6261160;28;20591;-67
2021/11/19 00:52:47;;;;;;;87.93;33.83;;;;;;;;;;6258967;28;20044;-67
2021/11/19 00:55:49;;;;;;;87.00;31.40;;;;;;;;;;6255458;28;20055;-67
2021/11/19 00:58:52;;;;;;;78.38;30.17;;;;;;;;;;6258089;28;20045;-67
2021/11/19 01:02:02;;;;;;;87.15;33.10;;;;;;;;;;6244354;28;20053;-67
2021/11/19 01:05:04;;;;;;;81.28;30.95;;;;;;;;;;6251905;28;20119;-67
2021/11/19 01:08:06;;;;;;;82.00;29.83;;;;;;;;;;6246343;28;20045;-67
2021/11/19 01:11:08;;;;;;;79.47;31.65;;;;;;;;;;6243435;28;20049;-67
2021/11/19 01:14:15;;;;;;;193.32;85.45;;;;;;;;;;6259445;28;20090;-68
2021/11/19 01:17:18;;;;;;;230.82;108.53;;;;;;;;;;6237454;28;20526;-68
2021/11/19 01:20:21;;;;;;;292.30;141.77;;;;;;;;;;6247951;28;20041;-69
2021/11/19 01:23:23;;;;;;;87.78;40.22;;;;;;;;;;6254011;28;20057;-66
2021/11/19 01:26:26;;;;;;;58.90;23.83;;;;;;;;;;6241582;28;20056;-66
2021/11/19 01:29:29;;;;;;;61.53;23.83;;;;;;;;;;6259341;28;20605;-66
2021/11/19 01:32:30;;;;;;;63.17;24.65;;;;;;;;;;6243180;28;20037;-66
2021/11/19 01:35:32;;;;;;;61.72;25.17;;;;;;;;;;6243030;28;20131;-65
2021/11/19 01:38:33;;;;;;;60.70;23.10;;;;;;;;;;6255615;28;20600;-66
2021/11/19 01:41:37;;;;;;;57.58;22.40;;;;;;;;;;6246164;28;20053;-66
2021/11/19 01:44:42;;;;;;;57.20;22.05;;;;;;;;;;6256823;28;20397;-66
2021/11/19 01:47:45;;;;;;;59.80;22.90;;;;;;;;;;6238727;28;20098;-66
2021/11/19 01:50:50;;;;;;;60.33;23.83;;;;;;;;;;6248854;28;20052;-66
2021/11/19 01:53:54;;;;;;;60.08;24.42;;;;;;;;;;6254508;28;20132;-66
2021/11/19 01:56:57;;;;;;;62.72;23.92;;;;;;;;;;6236110;28;20049;-66
2021/11/19 02:00:02;;;;;;;56.53;20.73;;;;;;;;;;6256479;28;20049;-66
2021/11/19 02:03:05;;;;;;;57.35;21.50;;;;;;;;;;6239983;28;20059;-66
2021/11/19 02:06:08;;;;;;;48.88;19.58;;;;;;;;;;6239385;28;20072;-66
2021/11/19 02:09:11;;;;;;;52.47;20.38;;;;;;;;;;6255802;28;20854;-66
2021/11/19 02:12:17;;;;;;;47.13;18.88;;;;;;;;;;6246105;28;20057;-66
2021/11/19 02:15:21;;;;;;;51.95;21.08;;;;;;;;;;6242477;28;20150;-66
2021/11/19 02:18:22;;;;;;;;;;;;;;;;;;6252562;28;20064;-66
2021/11/19 02:21:25;;;;;;;50.65;20.17;;;;;;;;;;6246306;28;19927;-65
2021/11/19 02:24:29;;;;;;;47.15;18.55;;;;;;;;;;6251895;28;20118;-65
2021/11/19 02:27:32;;;;;;;45.10;18.10;;;;;;;;;;6243608;28;20047;-66
2021/11/19 02:30:43;;;;;;;42.42;17.60;;;;;;;;;;6241991;28;20098;-66
2021/11/19 02:33:46;;;;;;;38.53;16.30;;;;;;;;;;6253649;28;20103;-65
2021/11/19 02:36:49;;;;;;;40.13;16.60;;;;;;;;;;6247263;28;20111;-66
2021/11/19 02:39:52;;;;;;;42.03;17.53;;;;;;;;;;6254573;28;20160;-65
2021/11/19 02:42:54;;;;;;;36.67;17.23;;;;;;;;;;6248471;28;20179;-65
2021/11/19 02:45:57;;;;;;;38.38;16.10;;;;;;;;;;6244707;28;20643;-65
2021/11/19 02:48:59;;;;;;;32.80;15.35;;;;;;;;;;6252568;28;20049;-66
2021/11/19 02:52:00;;;;;;;31.05;14.80;;;;;;;;;;6242498;28;20569;-66
2021/11/19 02:55:03;;;;;;;41.22;16.35;;;;;;;;;;6255287;28;20102;-66
2021/11/19 02:58:06;;;;;;;41.05;16.25;;;;;;;;;;6244576;28;20438;-66
2021/11/19 03:01:10;;;;;;;38.37;17.00;;;;;;;;;;6237114;28;21140;-66
2021/11/19 03:04:14;;;;;;;29.60;14.75;;;;;;;;;;6252797;28;20071;-66
2021/11/19 03:07:16;;;;;;;31.52;14.27;;;;;;;;;;6246605;28;20549;-66
2021/11/19 03:10:20;;;;;;;37.20;15.93;;;;;;;;;;6252047;28;20060;-66
2021/11/19 03:13:23;;;;;;;32.25;16.13;;;;;;;;;;6251837;28;20086;-66
2021/11/19 03:16:27;;;;;;;36.83;16.15;;;;;;;;;;6244723;28;20048;-66
2021/11/19 03:19:28;;;;;;;33.00;15.10;;;;;;;;;;6249792;28;20037;-65
2021/11/19 03:22:31;;;;;;;34.78;15.38;;;;;;;;;;6244801;28;20040;-66
2021/11/19 03:25:35;;;;;;;38.30;16.10;;;;;;;;;;6248096;28;20432;-66
2021/11/19 03:28:37;;;;;;;33.20;14.40;;;;;;;;;;6255203;28;20774;-66
2021/11/19 03:31:40;;;;;;;34.15;15.15;;;;;;;;;;6234753;28;20045;-66
2021/11/19 03:34:42;;;;;;;32.78;15.32;;;;;;;;;;6266163;28;20565;-66
2021/11/19 03:37:44;;;;;;;32.58;14.30;;;;;;;;;;6246901;28;20132;-66
2021/11/19 03:40:47;;;;;;;36.20;14.07;;;;;;;;;;6248587;28;20412;-65
2021/11/19 03:43:50;;;;;;;28.02;13.90;;;;;;;;;;6254049;28;20037;-66
2021/11/19 03:46:54;;;;;;;32.05;14.50;;;;;;;;;;6241884;28;20056;-66
2021/11/19 03:49:56;;;;;;;28.80;14.60;;;;;;;;;;6254656;28;20150;-66
2021/11/19 03:52:58;;;;;;;38.38;16.38;;;;;;;;;;6248916;28;20085;-66
2021/11/19 03:56:00;;;;;;;35.92;15.13;;;;;;;;;;6253977;28;20059;-65
2021/11/19 03:59:01;;;;;;;31.27;14.48;;;;;;;;;;6260134;28;20112;-66
2021/11/19 04:02:05;;;;;;;31.38;15.20;;;;;;;;;;6245203;28;20141;-65
2021/11/19 04:05:07;;;;;;;31.48;14.52;;;;;;;;;;6253531;28;20049;-66
2021/11/19 04:08:08;;;;;;;33.55;14.18;;;;;;;;;;6252710;28;20108;-65
2021/11/19 04:11:10;;;;;;;39.40;15.25;;;;;;;;;;6253810;28;20106;-65
2021/11/19 04:14:12;;;;;;;34.78;15.55;;;;;;;;;;6261380;28;20045;-65
2021/11/19 04:17:14;;;;;;;30.60;15.82;;;;;;;;;;6248384;28;20049;-66
2021/11/19 04:20:16;;;;;;;33.67;15.30;;;;;;;;;;6254037;28;20940;-66
2021/11/19 04:23:18;;;;;;;33.15;16.13;;;;;;;;;;6252238;28;20091;-65
2021/11/19 04:26:20;;;;;;;31.65;14.45;;;;;;;;;;6247918;28;20052;-65
2021/11/19 04:29:21;;;;;;;32.13;15.18;;;;;;;;;;6261035;28;20041;-65
2021/11/19 04:32:24;;;;;;;34.85;16.65;;;;;;;;;;6241955;28;22398;-65
2021/11/19 04:35:26;;;;;;;36.00;16.08;;;;;;;;;;6245272;28;20198;-65
2021/11/19 04:38:28;;;;;;;34.97;16.42;;;;;;;;;;6255218;28;20186;-66
2021/11/19 04:41:29;;;;;;;33.15;15.40;;;;;;;;;;6246292;28;20133;-66
2021/11/19 04:44:30;;;;;;;32.08;15.75;;;;;;;;;;6259543;28;20048;-66
2021/11/19 04:47:33;;;;;;;33.28;15.20;;;;;;;;;;6236543;28;20041;-66
2021/11/19 04:50:35;;;;;;;33.60;16.00;;;;;;;;;;6252703;28;20311;-66
2021/11/19 04:53:37;;;;;;;33.47;16.20;;;;;;;;;;6256878;28;20565;-66
2021/11/19 04:56:39;;;;;;;32.85;16.13;;;;;;;;;;6257743;28;20183;-66
2021/11/19 04:59:41;;;;;;;29.33;14.90;;;;;;;;;;6267821;28;20049;-66
2021/11/19 05:02:44;;;;;;;32.00;15.57;;;;;;;;;;6240287;28;20049;-66
2021/11/19 05:05:46;;;;;;;34.85;16.85;;;;;;;;;;6243067;28;20049;-66
2021/11/19 05:08:47;;;;;;;32.65;15.35;;;;;;;;;;6258777;28;20053;-66
2021/11/19 05:11:50;;;;;;;34.50;15.07;;;;;;;;;;6243942;28;20074;-66
2021/11/19 05:14:52;;;;;;;34.00;15.70;;;;;;;;;;6255581;28;20171;-66
2021/11/19 05:17:55;;;;;;;32.92;15.52;;;;;;;;;;6241042;28;20098;-66
2021/11/19 05:20:57;;;;;;;34.85;16.70;;;;;;;;;;6250995;28;20488;-66
2021/11/19 05:23:58;;;;;;;30.48;15.68;;;;;;;;;;6250861;28;20385;-66
2021/11/19 05:27:00;;;;;;;34.80;15.82;;;;;;;;;;6247156;28;20052;-66
2021/11/19 05:30:01;;;;;;;37.22;16.50;;;;;;;;;;6264847;28;20273;-66
2021/11/19 05:33:05;;;;;;;35.03;15.27;;;;;;;;;;6236388;28;20053;-65
2021/11/19 05:36:07;;;;;;;34.13;16.57;;;;;;;;;;6243489;28;20055;-66
2021/11/19 05:39:08;;;;;;;35.08;15.77;;;;;;;;;;6255244;28;20463;-66
2021/11/19 05:42:10;;;;;;;36.40;16.88;;;;;;;;;;6245953;28;20041;-66
2021/11/19 05:45:12;;;;;;;37.40;15.77;;;;;;;;;;6249970;28;20045;-67
2021/11/19 05:48:15;;;;;;;34.60;15.95;;;;;;;;;;6248356;28;20045;-66
2021/11/19 05:51:17;;;;;;;41.22;16.80;;;;;;;;;;6246479;28;20140;-66
2021/11/19 05:54:19;;;;;;;43.35;17.90;;;;;;;;;;6258214;28;20037;-66
2021/11/19 05:57:21;;;;;;;41.70;16.88;;;;;;;;;;6234244;28;20052;-66
2021/11/19 06:00:23;;;;;;;37.80;17.83;;;;;;;;;;6248589;28;20132;-66
2021/11/19 06:03:26;;;;;;;38.13;16.83;;;;;;;;;;6252553;28;20503;-66
2021/11/19 06:06:28;;;;;;;36.22;16.83;;;;;;;;;;6253584;28;20132;-66
2021/11/19 06:09:30;;;;;;;38.63;17.27;;;;;;;;;;6251769;28;20101;-66
2021/11/19 06:12:34;;;;;;;38.78;17.15;;;;;;;;;;6246024;28;20083;-66
2021/11/19 06:15:37;;;;;;;38.93;17.97;;;;;;;;;;6240471;28;20063;-67
2021/11/19 06:18:40;;;;;;;40.38;17.08;;;;;;;;;;6254885;28;20047;-66
2021/11/19 06:21:43;;;;;;;36.83;16.35;;;;;;;;;;6246435;28;20492;-66
2021/11/19 06:24:46;;;;;;;40.90;16.63;;;;;;;;;;6257102;28;20045;-65
2021/11/19 06:27:49;;;;;;;40.13;16.95;;;;;;;;;;6207032;28;20083;-65
2021/11/19 06:30:50;;;;;;;40.20;18.00;;;;;;;;;;6217937;28;20037;-66
2021/11/19 06:33:54;;;;;;;39.00;17.20;;;;;;;;;;6225049;28;20185;-65
2021/11/19 06:36:55;;;;;;;40.55;17.77;;;;;;;;;;6220051;28;20413;-66
2021/11/19 06:39:57;;;;;;;43.45;17.25;;;;;;;;;;6230010;28;20046;-65
2021/11/19 06:42:58;;;;;;;40.47;16.63;;;;;;;;;;6214925;28;20420;-65
2021/11/19 06:46:00;;;;;;;42.03;17.30;;;;;;;;;;6219432;28;20049;-65
2021/11/19 06:49:02;;;;;;;37.90;17.40;;;;;;;;;;6223969;28;20081;-65
2021/11/19 06:52:05;;;;;;;36.28;16.15;;;;;;;;;;6218630;28;20192;-66
2021/11/19 06:55:07;;;;;;;41.13;17.70;;;;;;;;;;6226360;28;20191;-66
2021/11/19 06:58:09;;;;;;;47.28;18.55;;;;;;;;;;6221886;28;20170;-65
2021/11/19 07:01:10;;;;;;;43.25;17.27;;;;;;;;;;6216935;28;20510;-66
2021/11/19 07:04:13;;;;;;;45.10;18.05;;;;;;;;;;6225283;28;20192;-66
2021/11/19 07:07:15;;;;;;;44.40;17.90;;;;;;;;;;6217251;28;20049;-66
2021/11/19 07:10:17;;;;;;;38.58;16.73;;;;;;;;;;6221808;28;20045;-66
2021/11/19 07:13:18;;;;;;;46.70;17.50;;;;;;;;;;6228541;28;20120;-66
2021/11/19 07:16:21;;;;;;;44.72;17.88;;;;;;;;;;6217748;28;20141;-65
2021/11/19 07:19:24;;;;;;;40.17;16.45;;;;;;;;;;6221458;28;20049;-65
2021/11/19 07:22:25;;;;;;;41.60;16.77;;;;;;;;;;6216269;28;20045;-69
2021/11/19 07:25:28;;;;;;;42.03;17.83;;;;;;;;;;6215397;28;20301;-65
2021/11/19 07:28:29;;;;;;;44.63;16.52;;;;;;;;;;6228651;28;20140;-66
2021/11/19 07:31:31;;;;;;;39.47;17.60;;;;;;;;;;6204039;28;20050;-66
2021/11/19 07:34:34;;;;;;;47.70;18.02;;;;;;;;;;6223174;28;20065;-65
2021/11/19 07:37:35;;;;;;;42.88;17.25;;;;;;;;;;6215184;28;20111;-66
2021/11/19 07:40:38;;;;;;;45.65;17.50;;;;;;;;;;6222314;28;20129;-65
2021/11/19 07:43:40;;;;;;;42.47;17.38;;;;;;;;;;6229823;28;20042;-65
2021/11/19 07:46:41;;;;;;;41.15;16.52;;;;;;;;;;6212885;28;20050;-65
2021/11/19 07:49:44;;;;;;;42.42;17.05;;;;;;;;;;6230461;28;20140;-66
2021/11/19 07:52:45;;;;;;;40.35;17.00;;;;;;;;;;6225680;28;20144;-66
2021/11/19 07:55:47;;;;;;;37.47;16.50;;;;;;;;;;6216667;28;20042;-65
2021/11/19 07:58:49;;;;;;;43.80;16.45;;;;;;;;;;6230926;28;20115;-65
2021/11/19 08:01:51;;;;;;;40.40;16.30;;;;;;;;;;6210475;28;20913;-66
2021/11/19 08:04:54;;;;;;;39.88;16.85;;;;;;;;;;6228579;28;20179;-65
2021/11/19 08:07:55;;;;;;;41.95;17.05;;;;;;;;;;6209154;28;20440;-66
2021/11/19 08:10:57;;;;;;;38.83;16.45;;;;;;;;;;6220372;28;20045;-65
2021/11/19 08:13:58;;;;;;;37.22;15.55;;;;;;;;;;6234786;28;21437;-65
2021/11/19 08:17:01;;;;;;;39.63;16.85;;;;;;;;;;6209048;28;20053;-65
2021/11/19 08:20:06;;;;;;;42.60;17.60;;;;;;;;;;6247351;28;20477;-65
2021/11/19 08:23:08;;;;;;;44.65;17.90;;;;;;;;;;6232149;28;20057;-65
2021/11/19 08:26:11;;;;;;;40.13;17.67;;;;;;;;;;6226267;28;20053;-65
2021/11/19 08:29:14;;;;;;;43.08;18.63;;;;;;;;;;6230283;28;20065;-65
2021/11/19 08:32:16;;;;;;;44.47;18.13;;;;;;;;;;6214073;28;20053;-66
2021/11/19 08:35:19;;;;;;;40.95;17.88;;;;;;;;;;6232334;28;20037;-66
2021/11/19 08:38:21;;;;;;;45.40;18.20;;;;;;;;;;6223128;28;20114;-66
2021/11/19 08:41:23;;;;;;;48.90;19.38;;;;;;;;;;6217807;28;20482;-64
2021/11/19 08:44:24;;;;;;;51.10;17.23;;;;;;;;;;6232903;28;20084;-65
2021/11/19 08:47:26;;;;;;;47.03;17.50;;;;;;;;;;6209683;28;20207;-65
2021/11/19 08:50:30;;;;;;;45.80;17.38;;;;;;;;;;6224851;28;20038;-65
2021/11/19 08:53:31;;;;;;;51.05;18.50;;;;;;;;;;6253047;28;20103;-65
2021/11/19 08:56:33;;;;;;;47.33;16.70;;;;;;;;;;6254683;28;20110;-65
2021/11/19 08:59:37;;;;;;;48.15;17.20;;;;;;;;;;6264310;28;20057;-66
2021/11/19 09:02:38;;;;;;;52.00;18.33;;;;;;;;;;6233518;28;20144;-66
2021/11/19 09:05:42;;;;;;;46.67;17.80;;;;;;;;;;6244692;28;20178;-66
2021/11/19 09:08:44;;;;;;;45.25;17.75;;;;;;;;;;6252756;28;20052;-66
2021/11/19 09:11:47;;;;;;;45.67;17.80;;;;;;;;;;6221922;28;20048;-66
2021/11/19 09:14:48;;;;;;;43.83;18.25;;;;;;;;;;6227618;28;20482;-66
2021/11/19 09:17:53;;;;;;;52.65;19.55;;;;;;;;;;6207111;28;20533;-66
2021/11/19 09:21:15;;;;;;;48.83;18.23;;;;;;;;;;6214843;28;20058;-66
2021/11/19 09:24:18;;;;;;;46.72;19.80;;;;;;;;;;6230907;28;20046;-66
2021/11/19 09:27:20;;;;;;;49.33;18.08;;;;;;;;;;6221028;28;20070;-65
2021/11/19 09:30:26;;;;;;;50.53;19.83;;;;;;;;;;6219130;28;20158;-67
2021/11/19 09:33:28;;;;;;;49.88;18.25;;;;;;;;;;6221412;28;20045;-66
2021/11/19 09:36:31;;;;;;;58.75;20.23;;;;;;;;;;6223063;28;20080;-66
2021/11/19 09:39:32;;;;;;;46.80;19.67;;;;;;;;;;6232968;28;20045;-66
2021/11/19 09:42:37;;;;;;;48.08;19.45;;;;;;;;;;6230530;28;20103;-66
2021/11/19 09:45:48;;;;;;;46.00;18.52;;;;;;;;;;6215790;28;20057;-65
2021/11/19 09:48:55;;;;;;;45.35;20.63;;;;;;;;;;6228459;28;20103;-65
2021/11/19 09:52:11;;;;;;;44.95;18.52;;;;;;;;;;6221242;28;20057;-65
2021/11/19 09:55:34;;;;;;;45.63;19.95;;;;;;;;;;6224778;28;20079;-66
2021/11/19 09:58:50;;;;;;;43.95;18.95;;;;;;;;;;6205538;28;20041;-65
2021/11/19 10:01:58;;;;;;;45.03;18.35;;;;;;;;;;6231695;28;20049;-65
2021/11/19 10:05:29;;;;;;;40.67;18.13;;;;;;;;;;6236103;28;20123;-65
2021/11/19 10:08:44;;;;;;;39.63;18.13;;;;;;;;;;6238958;28;20063;-66
2021/11/19 10:11:48;;;;;;;41.08;17.52;;;;;;;;;;6225861;28;20497;-65
2021/11/19 10:14:54;;;;;;;44.95;18.40;;;;;;;;;;6239928;28;20054;-65
2021/11/19 10:18:01;;;;;;;43.92;18.33;;;;;;;;;;6213795;28;20076;-65
2021/11/19 10:21:05;;;;;;;42.45;19.02;;;;;;;;;;6219943;28;20053;-65
2021/11/19 10:24:08;;;;;;;43.38;18.85;;;;;;;;;;6230206;28;20102;-65
2021/11/19 10:27:12;;;;;;;42.20;18.63;;;;;;;;;;6220613;28;20052;-65
2021/11/19 10:30:21;;;;;;;46.60;19.75;;;;;;;;;;6220793;28;20061;-66
2021/11/19 10:33:25;;;;;;;42.53;19.35;;;;;;;;;;6219666;28;20053;-66
2021/11/19 10:36:26;;;;;;;;;;;;;;;;;;6221816;28;20041;-65
2021/11/19 10:39:35;;;;;;;40.88;18.85;;;;;;;;;;6230207;28;19930;-65
2021/11/19 10:42:45;;;;;;;45.03;19.73;;;;;;;;;;6217199;28;20128;-65
2021/11/19 10:46:01;;;;;;;47.55;18.63;;;;;;;;;;6215811;28;20551;-65
2021/11/19 10:49:20;;;;;;;42.47;19.13;;;;;;;;;;6229831;28;20561;-66
2021/11/19 10:52:36;;;;;;;42.92;18.90;;;;;;;;;;6223767;28;20045;-66
2021/11/19 10:56:07;;;;;;;48.75;18.52;;;;;;;;;;6241028;28;20080;-66
2021/11/19 10:59:24;;;;;;;47.30;19.77;;;;;;;;;;6239645;28;20183;-66
2021/11/19 11:02:31;;;;;;;45.85;19.45;;;;;;;;;;6199584;28;20071;-66
2021/11/19 11:05:35;;;;;;;49.35;21.65;;;;;;;;;;6217422;28;20049;-65
2021/11/19 11:08:37;;;;;;;43.80;19.50;;;;;;;;;;6230752;28;20076;-66
2021/11/19 11:11:39;;;;;;;46.60;20.08;;;;;;;;;;6215462;28;20149;-65
2021/11/19 11:14:42;;;;;;;52.38;20.33;;;;;;;;;;6224408;28;20132;-64
2021/11/19 11:17:49;;;;;;;50.42;19.88;;;;;;;;;;6210671;28;20049;-65
2021/11/19 11:21:06;;;;;;;44.58;18.63;;;;;;;;;;6225077;28;20045;-65
2021/11/19 11:24:17;;;;;;;44.08;19.05;;;;;;;;;;6236832;28;20085;-66
2021/11/19 11:27:39;;;;;;;41.42;17.80;;;;;;;;;;6216059;28;20077;-66
2021/11/19 11:30:58;;;;;;;41.97;17.20;;;;;;;;;;6219195;28;20927;-66
2021/11/19 11:34:02;;;;;;;42.00;19.70;;;;;;;;;;6220460;28;20056;-65
2021/11/19 11:37:22;;;;;;;38.90;18.50;;;;;;;;;;6214187;28;20534;-65
2021/11/19 11:40:28;;;;;;;43.00;18.45;;;;;;;;;;6215511;28;20904;-65
2021/11/19 11:43:30;;;;;;;41.92;19.33;;;;;;;;;;6228456;28;20056;-65
2021/11/19 11:46:33;;;;;;;47.45;19.58;;;;;;;;;;6211026;28;20053;-66
2021/11/19 11:49:45;;;;;;;43.30;18.23;;;;;;;;;;6222813;28;20536;-65
2021/11/19 11:53:00;;;;;;;38.25;18.45;;;;;;;;;;6211710;28;20060;-66
2021/11/19 11:56:09;;;;;;;37.03;17.55;;;;;;;;;;6218843;28;20123;-65
2021/11/19 11:59:12;;;;;;;39.58;19.17;;;;;;;;;;6223114;28;20834;-68
2021/11/19 12:02:23;;;;;;;45.43;20.00;;;;;;;;;;6211808;28;20483;-69
2021/11/19 12:05:32;;;;;;;44.72;19.42;;;;;;;;;;6217593;28;20620;-66
2021/11/19 12:08:39;;;;;;;36.90;19.33;;;;;;;;;;6229893;28;20058;-66
2021/11/19 12:11:54;;;;;;;38.55;19.48;;;;;;;;;;6219419;28;20522;-67
2021/11/19 12:14:59;;;;;;;38.20;18.27;;;;;;;;;;6233147;28;20068;-66
2021/11/19 12:18:03;;;;;;;34.10;17.30;;;;;;;;;;6217816;28;20666;-66
2021/11/19 12:21:10;;;;;;;37.03;18.42;;;;;;;;;;6220639;28;20057;-66
2021/11/19 12:24:15;;;;;;;30.83;16.15;;;;;;;;;;6232145;28;20647;-66
2021/11/19 12:27:36;;;;;;;34.17;17.13;;;;;;;;;;6216858;28;20053;-65
2021/11/19 12:30:41;;;;;;;31.95;16.45;;;;;;;;;;6215686;28;20825;-65
2021/11/19 12:33:44;;;;;;;30.90;17.45;;;;;;;;;;6231048;28;20065;-66
2021/11/19 12:36:49;;;;;;;28.23;16.05;;;;;;;;;;6221652;28;20470;-64
2021/11/19 12:39:50;;;;;;;30.70;16.52;;;;;;;;;;6236746;28;20374;-65
2021/11/19 12:43:03;;;;;;;28.58;16.08;;;;;;;;;;6215404;28;20050;-66
2021/11/19 12:46:12;;;;;;;34.55;16.67;;;;;;;;;;6219413;28;20053;-66
2021/11/19 12:49:33;;;;;;;32.00;16.77;;;;;;;;;;6233187;28;20100;-66
2021/11/19 12:52:36;;;;;;;34.28;17.23;;;;;;;;;;6249093;28;20140;-67
2021/11/19 12:55:40;;;;;;;32.00;16.55;;;;;;;;;;6252865;28;20052;-66
2021/11/19 12:58:41;;;;;;;;;;;;;;;;;;6265635;28;20038;-66
2021/11/19 13:02:03;;;;;;;27.40;15.50;;;;;;;;;;6248504;28;20540;-66
2021/11/19 13:05:16;;;;;;;29.63;15.93;;;;;;;;;;6269503;28;20044;-66
2021/11/19 13:08:32;;;;;;;27.30;15.25;;;;;;;;;;6265546;28;20060;-66
2021/11/19 13:11:57;;;;;;;27.95;15.40;;;;;;;;;;6243120;28;20041;-66
2021/11/19 13:15:17;;;;;;;29.00;16.25;;;;;;;;;;6249165;28;20390;-66
2021/11/19 13:18:27;;;;;;;27.20;15.50;;;;;;;;;;6247562;28;20176;-67
2021/11/19 13:21:47;;;;;;;31.00;16.08;;;;;;;;;;6238093;28;20067;-66
2021/11/19 13:24:51;;;;;;;32.92;16.20;;;;;;;;;;6262733;28;20106;-65
2021/11/19 13:27:53;;;;;;;27.73;16.58;;;;;;;;;;6255136;28;20048;-66
2021/11/19 13:31:15;;;;;;;27.88;16.20;;;;;;;;;;6235314;28;20106;-67
2021/11/19 13:34:29;;;;;;;26.40;15.13;;;;;;;;;;6250967;28;20187;-66
2021/11/19 13:37:32;;;;;;;25.10;14.52;;;;;;;;;;6241224;28;20041;-66
2021/11/19 13:40:41;;;;;;;25.20;15.63;;;;;;;;;;6242510;28;20045;-65
2021/11/19 13:43:45;;;;;;;27.35;15.52;;;;;;;;;;6251283;28;20050;-65
2021/11/19 13:46:49;;;;;;;30.35;16.73;;;;;;;;;;6236869;28;20364;-65
2021/11/19 13:49:53;;;;;;;28.60;16.30;;;;;;;;;;6247171;28;20045;-66
2021/11/19 13:52:59;;;;;;;31.70;18.13;;;;;;;;;;6242630;28;20539;-66
2021/11/19 13:56:17;;;;;;;29.52;16.88;;;;;;;;;;6235462;28;20088;-66
2021/11/19 13:59:27;;;;;;;29.30;16.25;;;;;;;;;;6222602;28;20137;-66
2021/11/19 14:02:33;;;;;;;29.38;16.00;;;;;;;;;;6202104;28;20064;-67
2021/11/19 14:05:38;;;;;;;29.35;17.85;;;;;;;;;;6210687;28;20049;-66
2021/11/19 14:08:39;;;;;;;30.98;17.02;;;;;;;;;;6235461;28;20053;-66
2021/11/19 14:11:43;;;;;;;27.95;16.63;;;;;;;;;;6221388;28;20110;-66
2021/11/19 14:14:46;;;;;;;29.15;16.58;;;;;;;;;;6234376;28;20049;-66
2021/11/19 14:17:48;;;;;;;28.25;17.17;;;;;;;;;;6215889;28;20057;-66
2021/11/19 14:24:20;;;;;;;27.02;16.73;;;;;;;;;;6256885;28;20392;-66
2021/11/19 14:27:27;;;;;;;30.13;18.20;;;;;;;;;;6244522;28;20135;-66
2021/11/19 14:30:30;;;;;;;27.60;16.98;;;;;;;;;;6243162;28;20065;-66
2021/11/19 14:33:35;;;;;;;27.23;16.77;;;;;;;;;;6240349;28;20048;-66
2021/11/19 14:36:46;;;;;;;28.10;16.45;;;;;;;;;;6242464;28;20489;-66
2021/11/19 14:39:50;;;;;;;27.45;16.52;;;;;;;;;;6255209;28;20135;-66
2021/11/19 14:42:53;;;;;;;27.58;17.30;;;;;;;;;;6246432;28;20041;-66
2021/11/19 14:45:56;;;;;;;29.37;17.33;;;;;;;;;;6238856;28;20053;-66
2021/11/19 14:49:01;;;;;;;26.70;16.67;;;;;;;;;;6247221;28;20460;-66
2021/11/19 14:52:12;;;;;;;27.83;16.45;;;;;;;;;;6245823;28;20072;-66
2021/11/19 14:55:17;;;;;;;29.80;17.02;;;;;;;;;;6247570;28;20183;-66
2021/11/19 14:58:22;;;;;;;27.10;15.93;;;;;;;;;;6250233;28;20099;-66
2021/11/19 15:01:24;;;;;;;30.83;17.15;;;;;;;;;;6237961;28;20179;-66
2021/11/19 15:04:28;;;;;;;26.58;16.35;;;;;;;;;;6249990;28;20504;-67
2021/11/19 15:07:41;;;;;;;30.90;16.75;;;;;;;;;;6243582;28;20048;-66
2021/11/19 15:10:55;;;;;;;25.27;16.20;;;;;;;;;;6246064;28;20041;-66
2021/11/19 15:14:13;;;;;;;28.42;15.93;;;;;;;;;;6253539;28;20506;-66
2021/11/19 15:17:22;;;;;;;26.77;16.33;;;;;;;;;;6240063;28;20117;-66
2021/11/19 15:20:38;;;;;;;29.30;16.30;;;;;;;;;;6240278;28;20980;-66
2021/11/19 15:23:41;;;;;;;29.13;17.02;;;;;;;;;;6251164;28;20049;-66
2021/11/19 15:26:44;;;;;;;27.55;17.52;;;;;;;;;;6237912;28;20204;-65
2021/11/19 15:29:47;;;;;;;29.08;16.75;;;;;;;;;;6257176;28;20140;-66
2021/11/19 15:32:51;;;;;;;29.35;16.83;;;;;;;;;;6233066;28;20049;-66
2021/11/19 15:36:05;;;;;;;28.58;16.80;;;;;;;;;;6236222;28;20429;-65
2021/11/19 15:39:08;;;;;;;29.77;16.73;;;;;;;;;;6248099;28;20160;-66
2021/11/19 15:42:10;;;;;;;32.70;18.25;;;;;;;;;;6244669;28;20532;-67
2021/11/19 15:45:13;;;;;;;27.38;16.27;;;;;;;;;;6244020;28;20136;-66
2021/11/19 15:48:14;;;;;;;31.95;18.58;;;;;;;;;;6240534;28;20759;-66
2021/11/19 15:51:16;;;;;;;28.77;17.25;;;;;;;;;;6242265;28;20488;-68
2021/11/19 15:54:20;;;;;;;30.80;19.23;;;;;;;;;;6248028;28;20064;-68
2021/11/19 15:57:21;;;;;;;;;;;;;;;;;;6239992;28;20053;-67
2021/11/19 16:00:27;;;;;;;30.23;16.63;;;;;;;;;;6237957;28;20008;-68
2021/11/19 16:03:50;;;;;;;28.73;17.67;;;;;;;;;;6239595;28;20146;-67
2021/11/19 16:06:57;;;;;;;30.40;17.23;;;;;;;;;;6231847;28;20063;-67
2021/11/19 16:10:09;;;;;;;30.95;17.98;;;;;;;;;;6249051;28;20127;-67
2021/11/19 16:13:14;;;;;;;28.90;16.95;;;;;;;;;;6240048;28;20143;-67
2021/11/19 16:16:20;;;;;;;32.20;18.08;;;;;;;;;;6229104;28;20056;-66
2021/11/19 16:19:22;;;;;;;31.40;18.63;;;;;;;;;;6241696;28;20056;-67
2021/11/19 16:22:24;;;;;;;30.67;18.13;;;;;;;;;;6231393;28;20421;-67
2021/11/19 16:25:25;;;;;;;28.90;18.67;;;;;;;;;;6239091;28;20363;-66
2021/11/19 16:28:28;;;;;;;29.90;17.90;;;;;;;;;;6243912;28;20131;-67
2021/11/19 16:31:31;;;;;;;32.38;17.85;;;;;;;;;;6229351;28;20068;-68
2021/11/19 16:34:33;;;;;;;31.42;18.02;;;;;;;;;;6240778;28;20103;-66
2021/11/19 16:37:35;;;;;;;32.30;18.40;;;;;;;;;;6232721;28;20515;-66
2021/11/19 16:40:38;;;;;;;31.23;17.92;;;;;;;;;;6248077;28;20082;-66
2021/11/19 16:43:41;;;;;;;30.00;18.17;;;;;;;;;;6257332;28;20148;-66
2021/11/19 16:46:44;;;;;;;31.42;18.83;;;;;;;;;;6235168;28;20156;-67
2021/11/19 16:49:45;;;;;;;32.78;18.45;;;;;;;;;;6245304;28;20143;-67
2021/11/19 16:52:47;;;;;;;34.00;18.45;;;;;;;;;;6236181;28;20049;-66
2021/11/19 16:55:49;;;;;;;31.38;18.92;;;;;;;;;;6241292;28;20172;-67
2021/11/19 16:58:50;;;;;;;32.10;18.27;;;;;;;;;;6250969;28;20130;-67
2021/11/19 17:01:54;;;;;;;31.38;19.00;;;;;;;;;;6229177;28;20048;-67
2021/11/19 17:04:55;;;;;;;31.65;18.88;;;;;;;;;;6243201;28;20046;-68
2021/11/19 17:07:57;;;;;;;32.90;19.25;;;;;;;;;;6236396;28;20045;-67
2021/11/19 17:11:00;;;;;;;32.15;19.67;;;;;;;;;;6237410;28;20425;-67
2021/11/19 17:14:02;;;;;;;38.38;19.77;;;;;;;;;;6247427;28;20049;-67
2021/11/19 17:17:06;;;;;;;36.20;19.23;;;;;;;;;;6231378;28;20123;-67
2021/11/19 17:20:07;;;;;;;38.25;19.85;;;;;;;;;;6245961;28;20634;-68
2021/11/19 17:23:09;;;;;;;37.80;20.10;;;;;;;;;;6238516;28;20057;-66
2021/11/19 17:26:11;;;;;;;34.63;18.15;;;;;;;;;;6242300;28;20528;-66
2021/11/19 17:29:14;;;;;;;41.45;19.15;;;;;;;;;;6249850;28;20174;-66
2021/11/19 17:32:20;;;;;;;31.33;18.50;;;;;;;;;;6232013;28;20187;-66
2021/11/19 17:35:22;;;;;;;32.92;18.98;;;;;;;;;;6234859;28;20136;-67
2021/11/19 17:38:24;;;;;;;34.03;19.83;;;;;;;;;;6242519;28;20053;-65
2021/11/19 17:41:26;;;;;;;36.50;19.35;;;;;;;;;;6236827;28;20060;-66
2021/11/19 17:44:29;;;;;;;32.22;19.08;;;;;;;;;;6244041;28;20075;-66
2021/11/19 17:47:32;;;;;;;36.88;18.63;;;;;;;;;;6227362;28;20053;-66
2021/11/19 17:50:34;;;;;;;35.75;19.38;;;;;;;;;;6231863;28;20044;-66
2021/11/19 17:53:35;;;;;;;33.65;19.35;;;;;;;;;;6243483;28;20481;-65
2021/11/19 17:56:38;;;;;;;31.38;18.95;;;;;;;;;;6237425;28;20090;-67
2021/11/19 17:59:40;;;;;;;34.30;18.88;;;;;;;;;;6249680;28;20041;-67